Time;durP1;ratioP1;P1;durP2;ratioP2;P2;SDS_P1;SDS_P2;PMS_P1;PMS_P2;Temp;Humidity;BMP_temperature;BMP_pressure;BME280_temperature;BME280_humidity;BME280_pressure;Samples;Min_cycle;Max_cycle;Signal;HPM_P1;HPM_P2
2022/07/13 00:00:55;;;;;;;1.80;0.70;;;19.50;60.40;20.00;97233.00;;;;5019556;28;20198;-89
2022/07/13 00:03:25;;;;;;;2.93;0.80;;;19.50;60.50;19.90;97230.00;;;;5004187;28;20313;-89
2022/07/13 00:05:54;;;;;;;0.77;0.60;;;19.60;60.70;19.90;97230.00;;;;4993854;28;20211;-89
2022/07/13 00:08:21;;;;;;;0.90;0.70;;;19.40;60.60;19.90;97242.00;;;;5012689;28;20225;-89
2022/07/13 00:10:48;;;;;;;0.80;0.80;;;19.40;60.60;19.90;97226.00;;;;5024648;28;20221;-89
2022/07/13 00:13:15;;;;;;;0.80;0.60;;;19.40;60.70;19.80;97222.00;;;;5017415;28;20287;-89
2022/07/13 00:15:42;;;;;;;0.80;0.80;;;19.40;60.70;19.80;97227.00;;;;5011538;28;20201;-89
2022/07/13 00:18:10;;;;;;;1.13;0.70;;;19.30;60.90;19.70;97223.00;;;;5005684;28;20224;-90
2022/07/13 00:20:37;;;;;;;0.57;0.53;;;19.30;60.90;19.70;97218.00;;;;5021435;28;20654;-89
2022/07/13 00:23:05;;;;;;;0.93;0.90;;;19.20;60.80;19.70;97219.00;;;;5017710;28;20699;-89
2022/07/13 00:25:33;;;;;;;0.70;0.70;;;19.20;61.40;19.60;97222.00;;;;5008324;28;20293;-89
2022/07/13 00:28:00;;;;;;;0.93;0.70;;;19.20;61.80;19.60;97212.00;;;;4992405;28;20293;-89
2022/07/13 00:30:27;;;;;;;0.90;0.70;;;19.20;62.10;19.50;97210.00;;;;4993543;28;20286;-89
2022/07/13 00:32:54;;;;;;;0.70;0.70;;;19.10;62.20;19.40;97213.00;;;;5018657;28;20629;-90
2022/07/13 00:35:21;;;;;;;1.03;0.70;;;19.10;62.30;19.40;97214.00;;;;5011252;28;20213;-89
2022/07/13 00:37:48;;;;;;;1.73;0.70;;;19.00;62.30;19.40;97212.00;;;;5025259;28;20288;-89
2022/07/13 00:40:17;;;;;;;1.43;0.90;;;19.00;62.30;19.40;97220.00;;;;5025319;28;20237;-89
2022/07/13 00:42:44;;;;;;;0.80;0.80;;;18.90;62.10;19.30;97217.00;;;;5023011;28;20328;-89
2022/07/13 00:45:11;;;;;;;1.43;0.80;;;18.90;62.10;19.30;97220.00;;;;5012826;28;20667;-90
2022/07/13 00:47:39;;;;;;;0.60;0.50;;;18.90;62.20;19.30;97213.00;;;;5011558;28;20330;-90
2022/07/13 00:50:08;;;;;;;1.43;0.70;;;18.90;62.30;19.30;97205.00;;;;5014226;28;20560;-89
2022/07/13 00:52:37;;;;;;;0.73;0.73;;;18.90;62.40;19.30;97207.00;;;;5018023;28;20257;-90
2022/07/13 00:55:07;;;;;;;0.70;0.70;;;18.80;62.30;19.30;97205.00;;;;5005637;28;20195;-91
2022/07/13 00:57:38;;;;;;;1.00;0.67;;;18.80;62.40;19.20;97197.00;;;;5012518;28;20260;-90
2022/07/13 01:00:08;;;;;;;0.60;0.50;;;18.80;62.70;19.20;97216.00;;;;5010679;28;20668;-90
2022/07/13 01:02:37;;;;;;;1.27;0.70;;;18.70;62.70;19.20;97211.00;;;;5012954;28;20238;-90
2022/07/13 01:05:06;;;;;;;1.83;0.70;;;18.70;63.00;19.10;97214.00;;;;5010341;28;20195;-89
2022/07/13 01:07:34;;;;;;;0.60;0.60;;;18.70;63.00;19.10;97214.00;;;;5015009;28;20214;-89
2022/07/13 01:10:07;;;;;;;0.93;0.70;;;18.70;63.20;19.10;97210.00;;;;5011523;28;20285;-89
2022/07/13 01:12:37;;;;;;;0.63;0.63;;;18.60;63.50;19.10;97205.00;;;;5020623;28;20248;-89
2022/07/13 01:15:09;;;;;;;0.77;0.60;;;18.60;63.80;19.00;97204.00;;;;5068766;22;20650;-80
2022/07/13 01:17:37;;;;;;;0.90;0.90;;;18.60;63.80;19.00;97208.00;;;;5059602;28;20216;-83
2022/07/13 01:20:08;;;;;;;0.53;0.53;;;18.60;63.80;19.00;97206.00;;;;5061245;28;20223;-82
2022/07/13 01:22:42;;;;;;;0.70;0.70;;;18.60;63.70;19.00;97212.00;;;;5062677;28;20228;-83
2022/07/13 01:25:14;;;;;;;0.50;0.50;;;18.60;63.60;18.90;97213.00;;;;5053560;28;20196;-83
2022/07/13 01:27:44;;;;;;;0.70;0.70;;;18.50;63.60;18.90;97207.00;;;;5059836;28;20758;-83
2022/07/13 01:30:16;;;;;;;1.00;0.87;;;18.50;63.60;18.90;97208.00;;;;5058893;28;20197;-83
2022/07/13 01:32:57;;;;;;;1.00;0.63;;;18.50;63.80;18.90;97211.00;;;;5060768;28;20703;-83
2022/07/13 01:35:25;;;;;;;0.57;0.57;;;18.50;63.80;18.90;97209.00;;;;5069029;28;20196;-83
2022/07/13 01:37:55;;;;;;;0.77;0.70;;;18.40;63.70;18.90;97212.00;;;;5061736;28;20286;-83
2022/07/13 01:40:24;;;;;;;0.70;0.70;;;18.50;64.00;18.90;97207.00;;;;5062412;28;20650;-83
2022/07/13 01:42:55;;;;;;;0.63;0.63;;;18.50;64.20;18.90;97209.00;;;;5060476;28;20228;-83
2022/07/13 01:45:24;;;;;;;0.90;0.60;;;18.40;64.30;18.90;97211.00;;;;5060919;28;20201;-83
2022/07/13 01:47:59;;;;;;;0.77;0.60;;;18.40;64.30;18.90;97212.00;;;;5058264;28;20267;-83
2022/07/13 01:50:31;;;;;;;6.73;0.70;;;18.40;64.30;18.90;97217.00;;;;5063601;28;20258;-83
2022/07/13 01:53:05;;;;;;;0.80;0.80;;;18.40;64.30;18.80;97213.00;;;;5059698;28;20196;-83
2022/07/13 01:55:40;;;;;;;2.00;0.80;;;18.40;64.30;18.80;97215.00;;;;5059496;28;20218;-83
2022/07/13 01:58:07;;;;;;;0.60;0.60;;;18.40;64.60;18.80;97212.00;;;;5061804;28;20702;-83
2022/07/13 02:00:37;;;;;;;1.37;0.70;;;18.30;64.30;18.80;97217.00;;;;5058540;28;20224;-83
2022/07/13 02:03:08;;;;;;;1.03;0.70;;;18.30;64.40;18.80;97206.00;;;;5062411;28;20255;-83
2022/07/13 02:05:42;;;;;;;0.70;0.70;;;18.30;64.60;18.80;97202.00;;;;5059377;28;20197;-83
2022/07/13 02:08:10;;;;;;;0.67;0.67;;;18.30;64.80;18.80;97200.00;;;;5059683;28;20919;-83
2022/07/13 02:10:43;;;;;;;1.33;0.87;;;18.30;64.60;18.70;97193.00;;;;5061407;28;20197;-83
2022/07/13 02:13:12;;;;;;;0.80;0.80;;;18.30;64.70;18.70;97202.00;;;;5059777;28;20226;-83
2022/07/13 02:15:45;;;;;;;0.50;0.50;;;18.30;64.70;18.70;97198.00;;;;5060268;28;20276;-83
2022/07/13 02:18:15;;;;;;;0.93;0.63;;;18.20;64.70;18.60;97201.00;;;;5060623;28;20576;-83
2022/07/13 02:20:45;;;;;;;1.60;0.70;;;18.20;64.60;18.60;97198.00;;;;5059860;28;20197;-83
2022/07/13 02:23:16;;;;;;;0.93;0.60;;;18.20;64.70;18.60;97202.00;;;;5060746;28;20209;-83
2022/07/13 02:25:49;;;;;;;0.70;0.70;;;18.20;64.70;18.60;97202.00;;;;5060308;28;20555;-83
2022/07/13 02:28:16;;;;;;;1.17;1.17;;;18.10;65.00;18.60;97202.00;;;;5060001;28;20742;-83
2022/07/13 02:30:45;;;;;;;0.87;0.87;;;18.10;65.00;18.50;97193.00;;;;5058348;28;20197;-83
2022/07/13 02:33:15;;;;;;;0.60;0.60;;;18.10;65.00;18.50;97198.00;;;;5053999;28;20668;-83
2022/07/13 02:35:45;;;;;;;1.13;0.60;;;18.10;65.80;18.50;97201.00;;;;5057482;28;20212;-83
2022/07/13 02:38:13;;;;;;;0.77;0.63;;;18.10;65.30;18.50;97200.00;;;;5063503;28;20216;-83
2022/07/13 02:40:43;;;;;;;0.70;0.70;;;18.00;65.10;18.50;97201.00;;;;5062370;28;20251;-83
2022/07/13 02:43:15;;;;;;;2.10;0.90;;;18.00;65.20;18.40;97199.00;;;;5063648;28;20227;-83
2022/07/13 02:45:47;;;;;;;2.33;0.80;;;18.00;65.30;18.40;97202.00;;;;5061031;28;20205;-83
2022/07/13 02:48:20;;;;;;;0.83;0.70;;;18.00;65.50;18.40;97196.00;;;;5057914;28;20247;-83
2022/07/13 02:50:55;;;;;;;0.80;0.70;;;18.00;65.80;18.40;97201.00;;;;5060847;28;20204;-83
2022/07/13 02:53:25;;;;;;;0.60;0.60;;;18.00;65.80;18.40;97199.00;;;;5060993;28;20203;-83
2022/07/13 02:55:58;;;;;;;0.70;0.70;;;18.00;65.60;18.40;97189.00;;;;5059811;28;20196;-83
2022/07/13 02:58:30;;;;;;;1.37;1.00;;;17.90;65.70;18.30;97200.00;;;;5052376;28;20247;-83
2022/07/13 03:00:59;;;;;;;1.10;1.00;;;17.90;66.00;18.30;97193.00;;;;5053251;28;20873;-83
2022/07/13 03:03:27;;;;;;;0.70;0.70;;;17.90;65.90;18.30;97203.00;;;;5059940;28;20244;-83
2022/07/13 03:06:01;;;;;;;1.00;0.73;;;17.80;65.90;18.30;97204.00;;;;5060259;28;20608;-83
2022/07/13 03:08:32;;;;;;;0.70;0.70;;;17.80;66.10;18.30;97201.00;;;;5057440;28;20270;-83
2022/07/13 03:11:01;;;;;;;1.03;0.93;;;17.80;65.90;18.20;97199.00;;;;5039395;28;20621;-83
2022/07/13 03:13:30;;;;;;;0.70;0.70;;;17.80;65.80;18.20;97199.00;;;;5054950;28;20292;-83
2022/07/13 03:15:57;;;;;;;0.83;0.83;;;17.80;65.80;18.20;97201.00;;;;5050445;28;20641;-83
2022/07/13 03:18:31;;;;;;;0.97;0.77;;;17.80;65.90;18.20;97203.00;;;;5050025;28;20209;-83
2022/07/13 03:20:58;;;;;;;0.87;0.87;;;17.70;66.30;18.10;97196.00;;;;5037779;28;20568;-83
2022/07/13 03:23:31;;;;;;;2.47;1.00;;;17.70;66.20;18.10;97193.00;;;;5047068;28;20278;-83
2022/07/13 03:26:03;;;;;;;0.70;0.70;;;17.70;66.40;18.10;97197.00;;;;5035524;28;20620;-83
2022/07/13 03:28:35;;;;;;;2.20;1.00;;;17.70;66.30;18.10;97199.00;;;;5042017;28;20646;-83
2022/07/13 03:31:02;;;;;;;1.17;0.80;;;17.70;66.40;18.10;97204.00;;;;5036454;28;20697;-83
2022/07/13 03:33:29;;;;;;;0.80;0.80;;;17.60;66.20;18.10;97208.00;;;;5045347;28;20212;-83
2022/07/13 03:36:03;;;;;;;0.77;0.70;;;17.60;66.20;18.00;97205.00;;;;5050744;28;20195;-83
2022/07/13 03:38:33;;;;;;;0.70;0.70;;;17.60;66.30;18.00;97206.00;;;;5046844;28;20254;-83
2022/07/13 03:41:06;;;;;;;1.13;0.70;;;17.60;66.30;18.00;97211.00;;;;5037684;28;20205;-83
2022/07/13 03:43:42;;;;;;;0.93;0.93;;;17.60;66.60;18.00;97211.00;;;;5035964;28;20255;-83
2022/07/13 03:46:10;;;;;;;0.60;0.60;;;17.50;66.40;18.00;97205.00;;;;5041473;28;20231;-83
2022/07/13 03:48:37;;;;;;;0.60;0.60;;;17.50;66.40;18.00;97207.00;;;;5040655;28;20213;-83
2022/07/13 03:51:05;;;;;;;1.00;0.90;;;17.50;66.50;17.90;97208.00;;;;5046952;28;20189;-83
2022/07/13 03:53:32;;;;;;;1.33;0.90;;;17.50;66.50;17.90;97205.00;;;;5039354;28;20597;-83
2022/07/13 03:56:02;;;;;;;0.83;0.83;;;17.50;66.70;17.90;97200.00;;;;5044058;28;20224;-83
2022/07/13 03:58:34;;;;;;;0.80;0.80;;;17.40;66.80;17.90;97200.00;;;;5042496;28;20221;-83
2022/07/13 04:04:26;;;;;;;0.80;0.80;;;17.40;66.90;17.80;97199.00;;;;5039056;28;20585;-84
2022/07/13 04:06:57;;;;;;;1.63;0.87;;;17.40;66.80;17.80;97194.00;;;;5035930;28;20201;-84
2022/07/13 04:09:27;;;;;;;1.03;0.87;;;17.40;67.20;17.90;97192.00;;;;5041382;28;20204;-84
2022/07/13 04:11:57;;;;;;;0.90;0.90;;;17.40;67.30;17.90;97190.00;;;;5035934;28;20267;-84
2022/07/13 04:14:26;;;;;;;1.10;1.00;;;17.40;67.50;17.90;97195.00;;;;5046673;28;20243;-84
2022/07/13 04:16:54;;;;;;;1.43;0.90;;;17.40;67.70;17.90;97193.00;;;;5052622;28;20267;-82
2022/07/13 04:19:21;;;;;;;1.17;1.07;;;17.40;67.80;18.00;97196.00;;;;5055223;28;20254;-84
2022/07/13 04:21:48;;;;;;;1.13;1.03;;;17.40;67.80;18.00;97200.00;;;;5055368;28;20189;-83
2022/07/13 04:24:17;;;;;;;0.80;0.80;;;17.40;67.90;18.00;97189.00;;;;5054278;28;20282;-83
2022/07/13 04:26:44;;;;;;;0.93;0.93;;;17.40;68.10;18.00;97192.00;;;;5054095;28;20193;-84
2022/07/13 04:29:12;;;;;;;1.03;0.97;;;17.40;68.10;18.10;97193.00;;;;5055285;28;20566;-83
2022/07/13 04:31:40;;;;;;;0.80;0.80;;;17.50;68.40;18.10;97186.00;;;;5055230;28;20197;-83
2022/07/13 04:34:07;;;;;;;1.10;1.00;;;17.50;68.70;18.10;97192.00;;;;5058587;28;20189;-82
2022/07/13 04:36:34;;;;;;;1.00;1.00;;;17.50;68.70;18.20;97187.00;;;;5056925;28;20212;-83
2022/07/13 04:39:02;;;;;;;0.90;0.80;;;17.60;69.00;18.20;97192.00;;;;5058276;28;20217;-83
2022/07/13 04:41:29;;;;;;;0.80;0.80;;;17.60;69.00;18.20;97186.00;;;;5055093;28;20224;-84
2022/07/13 04:44:04;;;;;;;1.10;1.10;;;17.60;69.10;18.20;97181.00;;;;5052326;28;20655;-84
2022/07/13 04:46:31;;;;;;;1.40;1.30;;;17.60;69.30;18.30;97180.00;;;;5057103;28;20325;-83
2022/07/13 04:48:59;;;;;;;1.17;1.17;;;17.70;69.40;18.30;97181.00;;;;5059470;28;20224;-83
2022/07/13 04:51:27;;;;;;;1.20;1.10;;;17.70;69.70;18.30;97180.00;;;;5055625;28;20211;-83
2022/07/13 04:53:54;;;;;;;1.17;1.10;;;17.70;69.70;18.40;97183.00;;;;5057793;28;20196;-83
2022/07/13 04:56:22;;;;;;;1.27;1.20;;;17.80;69.90;18.40;97176.00;;;;5059428;28;20196;-83
2022/07/13 04:58:51;;;;;;;1.40;1.30;;;17.80;69.90;18.50;97182.00;;;;5058790;28;20208;-83
2022/07/13 05:01:18;;;;;;;1.50;1.40;;;17.90;70.20;18.50;97181.00;;;;5059042;28;20311;-83
2022/07/13 05:03:45;;;;;;;1.30;1.20;;;17.90;70.20;18.60;97183.00;;;;5059192;28;20228;-82
2022/07/13 05:06:14;;;;;;;4.30;1.20;;;18.00;70.30;18.60;97169.00;;;;5059043;28;20193;-83
2022/07/13 05:08:42;;;;;;;1.10;1.10;;;18.00;70.40;18.70;97180.00;;;;5061444;28;20217;-83
2022/07/13 05:11:10;;;;;;;1.10;1.00;;;18.10;70.50;18.70;97181.00;;;;5056207;28;20190;-83
2022/07/13 05:13:42;;;;;;;1.00;1.00;;;18.10;70.50;18.80;97183.00;;;;5059883;28;20287;-82
2022/07/13 05:16:10;;;;;;;1.23;1.13;;;18.20;70.60;18.90;97179.00;;;;5046754;28;20565;-83
2022/07/13 05:18:40;;;;;;;1.10;1.00;;;18.20;70.80;18.90;97182.00;;;;5037244;28;20721;-83
2022/07/13 05:21:07;;;;;;;0.97;0.90;;;18.30;70.90;19.00;97187.00;;;;5037319;28;20205;-84
2022/07/13 05:23:39;;;;;;;1.10;1.00;;;18.30;70.90;19.00;97186.00;;;;5039119;28;20259;-83
2022/07/13 05:26:08;;;;;;;0.87;0.87;;;18.40;70.90;19.10;97180.00;;;;5046203;28;20658;-83
2022/07/13 05:28:39;;;;;;;1.00;1.00;;;18.50;70.90;19.20;97193.00;;;;5039576;28;20587;-83
2022/07/13 05:31:09;;;;;;;0.97;0.87;;;18.50;71.00;19.20;97191.00;;;;5025400;28;20241;-84
2022/07/13 05:33:40;;;;;;;1.07;1.03;;;18.60;70.90;19.30;97194.00;;;;5049405;28;20196;-83
2022/07/13 05:36:15;;;;;;;0.90;0.90;;;18.70;70.90;19.40;97189.00;;;;5039845;28;20225;-83
2022/07/13 05:38:45;;;;;;;1.00;1.00;;;18.70;71.00;19.40;97191.00;;;;5041106;28;20294;-83
2022/07/13 05:41:12;;;;;;;1.00;0.97;;;18.80;71.00;19.50;97188.00;;;;5039959;28;20240;-83
2022/07/13 05:43:40;;;;;;;0.90;0.90;;;18.90;70.80;19.60;97181.00;;;;5033337;28;20267;-84
2022/07/13 05:46:08;;;;;;;0.97;0.97;;;18.90;70.70;19.70;97179.00;;;;5036037;28;20201;-84
2022/07/13 05:48:36;;;;;;;2.20;0.90;;;19.00;70.70;19.80;97171.00;;;;5037196;28;20215;-83
2022/07/13 05:51:04;;;;;;;1.37;0.90;;;19.10;70.70;19.80;97162.00;;;;5034520;28;20199;-83
2022/07/13 05:53:32;;;;;;;1.00;1.00;;;19.20;70.60;19.90;97152.00;;;;5045285;28;20219;-83
2022/07/13 05:56:01;;;;;;;1.30;1.20;;;19.30;70.50;20.00;97157.00;;;;5048332;28;20209;-83
2022/07/13 05:58:31;;;;;;;1.10;1.03;;;19.30;70.40;20.10;97153.00;;;;5037232;28;20221;-83
2022/07/13 06:00:58;;;;;;;2.13;1.03;;;19.40;70.30;20.10;97150.00;;;;5042219;28;20272;-83
2022/07/13 06:03:25;;;;;;;1.40;1.00;;;19.50;70.20;20.30;97155.00;;;;5041230;28;20421;-84
2022/07/13 06:05:56;;;;;;;1.17;1.07;;;19.60;70.00;20.30;97144.00;;;;5058328;28;20224;-82
2022/07/13 06:08:23;;;;;;;1.70;1.20;;;19.70;69.90;20.40;97148.00;;;;5050039;28;20308;-84
2022/07/13 06:10:53;;;;;;;1.30;1.20;;;19.80;69.90;20.50;97163.00;;;;5042294;28;20207;-84
2022/07/13 06:13:22;;;;;;;1.17;1.10;;;19.80;69.80;20.50;97162.00;;;;5045920;28;20217;-84
2022/07/13 06:15:50;;;;;;;1.00;1.00;;;19.90;69.70;20.60;97152.00;;;;5060892;28;20208;-84
2022/07/13 06:18:17;;;;;;;1.80;1.33;;;20.00;69.60;20.70;97153.00;;;;5063040;28;20232;-84
2022/07/13 06:20:44;;;;;;;1.07;1.03;;;20.00;69.50;20.80;97152.00;;;;5061546;28;20300;-84
2022/07/13 06:23:12;;;;;;;1.30;1.20;;;20.10;69.40;20.90;97142.00;;;;5045402;28;20584;-84
2022/07/13 06:25:41;;;;;;;1.40;1.30;;;20.20;69.30;21.00;97144.00;;;;5052856;28;20624;-84
2022/07/13 06:28:08;;;;;;;2.67;1.10;;;20.30;69.50;21.00;97141.00;;;;5055158;28;20220;-84
2022/07/13 06:30:38;;;;;;;1.97;1.20;;;20.40;69.40;21.10;97142.00;;;;5053696;28;20230;-84
2022/07/13 06:33:07;;;;;;;2.50;1.10;;;20.50;69.40;21.20;97137.00;;;;5052308;28;20193;-84
2022/07/13 06:35:34;;;;;;;1.87;1.77;;;20.50;69.20;21.30;97148.00;;;;5050698;28;20208;-84
2022/07/13 06:38:01;;;;;;;1.63;1.17;;;20.60;69.10;21.40;97143.00;;;;5050676;28;20692;-84
2022/07/13 06:40:29;;;;;;;1.77;1.20;;;20.70;69.20;21.50;97148.00;;;;5047047;28;20200;-84
2022/07/13 06:42:56;;;;;;;1.20;1.10;;;20.80;69.10;21.60;97145.00;;;;5053989;28;20200;-84
2022/07/13 06:45:23;;;;;;;1.90;1.17;;;20.90;68.90;21.70;97153.00;;;;5052170;28;20221;-84
2022/07/13 06:47:52;;;;;;;1.47;1.00;;;21.00;68.70;21.80;97155.00;;;;5048624;28;20216;-83
2022/07/13 06:50:20;;;;;;;1.67;1.07;;;21.10;68.60;21.90;97158.00;;;;5051985;28;20568;-84
2022/07/13 06:52:47;;;;;;;1.77;0.90;;;21.20;68.40;22.00;97160.00;;;;5054391;28;20189;-84
2022/07/13 06:55:15;;;;;;;0.93;0.80;;;21.30;68.20;22.10;97159.00;;;;5054714;28;20265;-84
2022/07/13 06:57:43;;;;;;;0.80;0.80;;;21.40;68.10;22.20;97170.00;;;;5058511;28;20235;-84
2022/07/13 07:00:13;;;;;;;0.70;0.70;;;21.50;67.60;22.30;97166.00;;;;5058864;28;20197;-85
2022/07/13 07:02:40;;;;;;;0.70;0.67;;;21.60;67.40;22.40;97168.00;;;;5100101;22;20238;-80
2022/07/13 07:05:10;;;;;;;1.03;0.67;;;21.70;67.30;22.60;97163.00;;;;5075471;28;20319;-79
2022/07/13 07:07:38;;;;;;;0.70;0.70;;;21.80;67.00;22.70;97173.00;;;;5071789;28;20196;-79
2022/07/13 07:10:06;;;;;;;0.70;0.70;;;21.90;66.80;22.90;97175.00;;;;5080564;28;20284;-80
2022/07/13 07:12:34;;;;;;;1.60;0.83;;;22.10;67.00;23.10;97179.00;;;;5078023;28;20238;-79
2022/07/13 07:15:01;;;;;;;1.70;0.67;;;22.20;67.20;23.30;97179.00;;;;5085745;22;20607;-83
2022/07/13 07:17:28;;;;;;;1.33;0.90;;;22.40;67.80;23.50;97174.00;;;;5065535;28;20290;-83
2022/07/13 07:19:59;;;;;;;1.53;0.90;;;22.60;67.50;23.80;97183.00;;;;5069210;28;20245;-83
2022/07/13 07:22:30;;;;;;;1.00;0.60;;;22.70;67.30;24.00;97178.00;;;;5068749;28;20209;-83
2022/07/13 07:24:57;;;;;;;0.70;0.60;;;22.90;67.00;24.30;97173.00;;;;5068778;28;20228;-83
2022/07/13 07:27:24;;;;;;;0.80;0.77;;;23.20;66.70;24.50;97173.00;;;;5061927;28;20305;-83
2022/07/13 07:29:52;;;;;;;1.23;0.70;;;23.40;66.20;24.70;97181.00;;;;5071128;28;20199;-83
2022/07/13 07:32:19;;;;;;;0.70;0.70;;;23.60;65.60;24.90;97165.00;;;;5061684;28;20658;-83
2022/07/13 07:34:46;;;;;;;1.77;0.67;;;23.80;65.30;25.10;97174.00;;;;5067941;28;20249;-83
2022/07/13 07:37:13;;;;;;;0.63;0.63;;;24.00;65.50;25.30;97172.00;;;;5069840;28;20227;-84
2022/07/13 07:39:42;;;;;;;0.70;0.70;;;24.10;64.80;25.60;97168.00;;;;5060204;28;20292;-84
2022/07/13 07:42:09;;;;;;;1.53;0.60;;;24.40;64.60;25.80;97165.00;;;;5069531;28;20671;-84
2022/07/13 07:44:37;;;;;;;0.70;0.50;;;24.60;64.60;26.00;97164.00;;;;5060253;28;20220;-84
2022/07/13 07:47:04;;;;;;;0.93;0.50;;;24.80;63.70;26.30;97165.00;;;;5069340;28;20211;-84
2022/07/13 07:49:31;;;;;;;0.53;0.53;;;25.00;63.30;26.50;97173.00;;;;5069916;28;20200;-84
2022/07/13 07:51:58;;;;;;;3.23;0.53;;;25.20;63.10;26.70;97157.00;;;;5069863;28;20606;-84
2022/07/13 07:54:26;;;;;;;0.60;0.60;;;25.40;62.90;26.90;97158.00;;;;5068425;28;20227;-84
2022/07/13 07:56:54;;;;;;;0.60;0.60;;;25.60;62.60;27.10;97157.00;;;;5065443;28;20196;-84
2022/07/13 07:59:22;;;;;;;2.67;0.70;;;25.80;61.70;27.40;97163.00;;;;5069055;28;20282;-84
2022/07/13 08:01:49;;;;;;;0.97;0.60;;;26.00;61.00;27.60;97161.00;;;;5068725;28;20298;-84
2022/07/13 08:04:16;;;;;;;0.43;0.40;;;26.20;60.50;27.90;97169.00;;;;5065614;28;20227;-84
2022/07/13 08:06:44;;;;;;;0.82;0.60;;;26.50;60.80;28.20;97170.00;;;;5070433;28;20199;-84
2022/07/13 08:09:11;;;;;;;2.17;0.90;;;26.70;59.50;28.50;97173.00;;;;5073936;28;20203;-84
2022/07/13 08:11:38;;;;;;;0.60;0.50;;;27.00;58.80;28.80;97172.00;;;;5071588;28;20640;-84
2022/07/13 08:14:12;;;;;;;0.30;0.30;;;27.20;58.10;29.00;97177.00;;;;5060310;28;20271;-84
2022/07/13 08:16:39;;;;;;;0.38;0.38;;;27.50;56.30;29.20;97177.00;;;;5068619;28;20278;-84
2022/07/13 08:19:06;;;;;;;0.40;0.40;;;27.70;56.40;29.40;97181.00;;;;5072715;28;20203;-85
2022/07/13 08:21:35;;;;;;;0.47;0.40;;;27.90;55.40;29.50;97183.00;;;;5073041;28;20337;-84
2022/07/13 08:24:02;;;;;;;0.60;0.38;;;28.00;55.00;29.70;97183.00;;;;5074842;28;20277;-84
2022/07/13 08:26:31;;;;;;;0.73;0.60;;;28.20;54.40;29.80;97175.00;;;;5070608;28;20222;-84
2022/07/13 08:29:00;;;;;;;3.13;0.50;;;28.30;53.40;29.90;97175.00;;;;5074271;28;20295;-84
2022/07/13 08:31:29;;;;;;;0.70;0.60;;;28.40;53.70;30.00;97176.00;;;;5071574;28;20199;-84
2022/07/13 08:39:26;;;;;;;0.30;0.30;;;28.80;52.30;30.30;97177.00;;;;5071019;28;20207;-84
2022/07/13 08:41:57;;;;;;;1.08;0.40;;;28.90;51.10;30.40;97165.00;;;;5070611;28;20203;-84
2022/07/13 08:44:26;;;;;;;0.30;0.20;;;29.00;49.70;30.50;97166.00;;;;5071605;28;20225;-84
2022/07/13 08:46:54;;;;;;;0.28;0.28;;;29.10;50.00;30.60;97162.00;;;;5071315;28;20282;-84
2022/07/13 08:49:23;;;;;;;0.43;0.30;;;29.20;50.20;30.80;97151.00;;;;5068818;28;20235;-84
2022/07/13 08:51:52;;;;;;;0.88;0.43;;;29.30;49.50;31.10;97158.00;;;;5073693;28;20254;-84
2022/07/13 08:54:20;;;;;;;0.40;0.40;;;29.50;49.20;31.30;97164.00;;;;5067937;28;20196;-84
2022/07/13 08:56:47;;;;;;;0.93;0.40;;;29.60;48.70;31.50;97167.00;;;;5072126;28;20200;-85
2022/07/13 08:59:15;;;;;;;1.10;0.30;;;29.80;48.30;31.70;97172.00;;;;5057005;28;20235;-85
2022/07/13 09:01:42;;;;;;;1.35;0.30;;;30.00;47.90;31.80;97176.00;;;;5069691;28;20204;-85
2022/07/13 09:04:13;;;;;;;0.32;0.28;;;30.10;46.70;31.80;97177.00;;;;5059978;28;20275;-84
2022/07/13 09:06:47;;;;;;;0.98;0.30;;;30.20;47.00;31.90;97178.00;;;;5069825;28;20196;-84
2022/07/13 09:09:33;;;;;;;0.15;0.13;;;30.40;46.90;32.00;97185.00;;;;5073116;28;20282;-84
2022/07/13 09:12:19;;;;;;;0.17;0.17;;;30.40;46.30;32.10;97183.00;;;;5063017;28;20197;-85
2022/07/13 09:14:53;;;;;;;0.30;0.30;;;30.60;46.00;32.30;97185.00;;;;5073158;28;20218;-84
2022/07/13 09:17:39;;;;;;;0.68;0.30;;;30.70;46.20;32.50;97182.00;;;;5073320;28;20212;-85
2022/07/13 09:20:23;;;;;;;0.30;0.30;;;30.90;44.20;32.80;97188.00;;;;5067990;28;20203;-84
2022/07/13 09:22:56;;;;;;;1.65;0.40;;;31.00;43.90;33.00;97187.00;;;;5068079;28;20188;-85
2022/07/13 09:25:32;;;;;;;0.73;0.50;;;31.20;44.40;33.20;97180.00;;;;5071620;28;20226;-85
2022/07/13 09:28:04;;;;;;;0.20;0.20;;;31.40;43.90;33.30;97180.00;;;;5073127;28;20214;-84
2022/07/13 09:30:32;;;;;;;0.20;0.20;;;31.50;43.70;33.40;97176.00;;;;5072070;28;20207;-84
2022/07/13 09:33:01;;;;;;;0.30;0.30;;;31.70;43.90;33.50;97176.00;;;;5059359;28;20200;-85
2022/07/13 09:35:49;;;;;;;1.00;0.30;;;31.80;43.40;33.50;97172.00;;;;5073121;28;20235;-85
2022/07/13 09:38:30;;;;;;;0.20;0.20;;;31.90;41.90;33.50;97172.00;;;;5052112;28;20220;-85
2022/07/13 09:40:58;;;;;;;0.20;0.20;;;32.00;42.30;33.60;97167.00;;;;5064287;28;20234;-85
2022/07/13 09:46:09;;;;;;;0.40;0.40;;;32.10;42.10;33.50;97165.00;;;;5072947;28;20597;-84
2022/07/13 09:48:37;;;;;;;0.55;0.45;;;32.10;41.00;33.50;97162.00;;;;5072533;28;20644;-85
2022/07/13 09:51:07;;;;;;;0.40;0.40;;;32.10;41.60;33.60;97171.00;;;;5073401;28;20228;-85
2022/07/13 09:53:36;;;;;;;0.65;0.20;;;32.10;41.60;33.70;97165.00;;;;5062166;28;20208;-85
2022/07/13 09:56:06;;;;;;;0.20;0.20;;;32.20;42.00;33.80;97166.00;;;;5066565;28;20196;-85
2022/07/13 09:58:36;;;;;;;0.30;0.30;;;32.30;41.10;34.00;97173.00;;;;5072364;28;20334;-85
2022/07/13 10:01:04;;;;;;;0.20;0.20;;;32.40;41.50;34.20;97171.00;;;;5071107;28;20192;-84
2022/07/13 10:03:33;;;;;;;0.93;0.40;;;32.50;40.90;34.30;97170.00;;;;5072504;28;20199;-85
2022/07/13 10:06:05;;;;;;;0.30;0.30;;;32.60;39.90;34.30;97170.00;;;;5070316;28;20702;-85
2022/07/13 10:08:34;;;;;;;1.35;0.10;;;32.70;40.20;34.50;97174.00;;;;5063998;28;20273;-85
2022/07/13 10:11:04;;;;;;;0.82;0.40;;;32.90;40.80;34.70;97184.00;;;;5070162;28;20570;-85
2022/07/13 10:13:33;;;;;;;0.20;0.20;;;33.00;40.50;34.80;97181.00;;;;5065516;28;20196;-89
2022/07/13 10:16:00;;;;;;;0.63;0.30;;;33.20;39.60;34.80;97183.00;;;;5071750;28;20577;-84
2022/07/13 10:18:33;;;;;;;0.20;0.20;;;33.30;40.30;34.90;97181.00;;;;5061360;28;20224;-85
2022/07/13 10:21:25;;;;;;;0.40;0.30;;;33.40;39.90;34.90;97183.00;;;;5067348;28;20207;-85
2022/07/13 10:23:52;;;;;;;0.20;0.20;;;33.50;39.30;34.90;97181.00;;;;5070715;28;20262;-84
2022/07/13 10:26:21;;;;;;;0.20;0.20;;;33.50;39.10;34.90;97183.00;;;;5071485;28;20238;-85
2022/07/13 10:29:09;;;;;;;0.30;0.30;;;33.50;39.50;34.90;97177.00;;;;5071211;28;20281;-85
2022/07/13 10:31:37;;;;;;;0.20;0.20;;;33.60;40.00;34.90;97164.00;;;;5070011;28;20287;-84
2022/07/13 10:34:07;;;;;;;0.30;0.30;;;33.60;40.10;34.90;97174.00;;;;5071096;28;20231;-85
2022/07/13 10:37:00;;;;;;;2.60;0.32;;;33.60;39.10;34.90;97183.00;;;;5068787;28;20254;-85
2022/07/13 10:39:29;;;;;;;0.10;0.10;;;33.60;38.60;34.90;97179.00;;;;5071599;28;20196;-85
2022/07/13 10:42:00;;;;;;;0.20;0.20;;;33.60;38.70;35.00;97181.00;;;;5071105;28;20188;-84
2022/07/13 10:44:38;;;;;;;0.30;0.25;;;33.60;39.00;35.00;97183.00;;;;5068425;28;20248;-85
2022/07/13 10:47:08;;;;;;;0.25;0.20;;;33.60;38.70;35.00;97188.00;;;;5071522;28;20223;-84
2022/07/13 10:49:41;;;;;;;0.55;0.30;;;33.60;38.50;35.00;97182.00;;;;5071902;28;20199;-85
2022/07/13 10:52:50;;;;;;;0.55;0.47;;;33.60;38.40;35.00;97185.00;;;;5066879;28;20280;-85
2022/07/13 10:55:32;;;;;;;0.30;0.30;;;33.60;38.20;35.10;97186.00;;;;5066925;28;20215;-85
2022/07/13 10:58:00;;;;;;;0.80;0.20;;;33.60;38.70;35.10;97180.00;;;;5068713;28;20277;-85
2022/07/13 11:00:44;;;;;;;1.05;0.30;;;33.60;37.90;35.00;97172.00;;;;5070808;28;20253;-85
2022/07/13 11:03:32;;;;;;;0.13;0.13;;;33.60;36.20;34.90;97159.00;;;;5071671;28;20267;-85
2022/07/13 11:06:08;;;;;;;0.10;0.10;;;33.60;36.40;34.90;97173.00;;;;5068790;28;20598;-85
2022/07/13 11:08:37;;;;;;;0.47;0.35;;;33.60;36.40;34.80;97161.00;;;;5070943;28;20789;-85
2022/07/13 11:11:15;;;;;;;0.30;0.30;;;33.50;36.40;34.70;97161.00;;;;5071225;28;20192;-85
2022/07/13 11:13:45;;;;;;;0.25;0.25;;;33.50;36.90;34.60;97154.00;;;;5054242;28;20663;-86
2022/07/13 11:16:13;;;;;;;0.30;0.30;;;33.40;36.70;34.50;97157.00;;;;5067342;28;20211;-86
2022/07/13 11:18:42;;;;;;;0.60;0.40;;;33.40;36.90;34.40;97156.00;;;;5070526;28;20692;-86